Time;durP1;ratioP1;P1;durP2;ratioP2;P2;SDS_P1;SDS_P2;PMS_P1;PMS_P2;Temp;Humidity;BMP_temperature;BMP_pressure;BME280_temperature;BME280_humidity;BME280_pressure;Samples;Min_cycle;Max_cycle;Signal;HPM_P1;HPM_P2
2022/08/06 00:01:19;;;;;;;4.13;1.60;;;14.20;99.90;;;;;;5095491;28;20447;-71
2022/08/06 00:04:08;;;;;;;1.73;1.63;;;14.20;99.90;;;;;;5096806;28;20451;-72
2022/08/06 00:06:56;;;;;;;2.23;1.73;;;14.20;99.90;;;;;;5099720;28;20440;-71
2022/08/06 00:09:44;;;;;;;2.27;1.73;;;14.20;99.90;;;;;;5096024;28;20613;-71
2022/08/06 00:12:46;;;;;;;1.80;1.70;;;14.10;99.90;;;;;;5099794;28;20483;-71
2022/08/06 00:15:35;;;;;;;2.07;1.80;;;14.10;99.90;;;;;;5101014;28;20447;-71
2022/08/06 00:18:44;;;;;;;2.33;1.57;;;14.10;99.90;;;;;;5094836;28;20900;-71
2022/08/06 00:21:33;;;;;;;1.60;1.50;;;14.10;99.90;;;;;;5094332;28;20449;-72
2022/08/06 00:24:29;;;;;;;2.20;1.70;;;14.10;99.90;;;;;;5098792;28;20444;-71
2022/08/06 00:27:19;;;;;;;1.67;1.57;;;14.10;99.90;;;;;;5100517;28;20835;-71
2022/08/06 00:30:19;;;;;;;3.63;1.63;;;14.00;99.90;;;;;;5096605;28;20475;-71
2022/08/06 00:33:09;;;;;;;2.23;1.63;;;14.00;99.90;;;;;;5097932;28;20472;-71
2022/08/06 00:36:02;;;;;;;2.00;1.80;;;14.00;99.90;;;;;;5101508;28;20967;-71
2022/08/06 00:38:50;;;;;;;2.20;1.83;;;13.90;99.90;;;;;;5097045;28;21155;-71
2022/08/06 00:41:39;;;;;;;2.23;1.60;;;13.90;99.90;;;;;;5098227;28;20484;-72
2022/08/06 00:44:33;;;;;;;2.10;1.90;;;13.90;99.90;;;;;;5098323;28;21029;-71
2022/08/06 00:47:23;;;;;;;2.13;1.60;;;13.90;99.90;;;;;;5097133;28;20444;-71
2022/08/06 00:50:32;;;;;;;2.50;1.83;;;13.80;99.90;;;;;;5103530;28;20815;-71
2022/08/06 00:53:20;;;;;;;4.17;1.80;;;13.80;99.90;;;;;;5103952;27;21729;-71
2022/08/06 00:56:09;;;;;;;2.27;1.73;;;13.80;99.90;;;;;;5101339;28;20475;-71
2022/08/06 00:58:58;;;;;;;2.03;1.93;;;13.80;99.90;;;;;;5103828;28;20477;-71
2022/08/06 01:01:51;;;;;;;1.70;1.60;;;13.80;99.90;;;;;;5104140;28;20444;-71
2022/08/06 01:04:40;;;;;;;2.57;1.80;;;13.70;99.90;;;;;;5099150;28;20447;-74
2022/08/06 01:07:28;;;;;;;2.03;1.83;;;13.80;99.90;;;;;;5101051;28;20538;-72
2022/08/06 01:10:37;;;;;;;3.53;1.90;;;13.80;99.90;;;;;;5098002;27;20451;-72
2022/08/06 01:13:29;;;;;;;2.17;2.00;;;13.70;99.90;;;;;;5100235;28;20862;-71
2022/08/06 01:16:44;;;;;;;1.70;1.60;;;13.80;99.90;;;;;;5098987;28;20451;-71
2022/08/06 01:19:51;;;;;;;3.63;2.10;;;13.70;99.90;;;;;;5098699;27;20845;-72
2022/08/06 01:23:12;;;;;;;1.90;1.80;;;13.70;99.90;;;;;;5099577;28;20455;-71
2022/08/06 01:26:31;;;;;;;3.07;2.20;;;13.70;99.90;;;;;;5096485;28;20447;-71
2022/08/06 01:29:27;;;;;;;2.60;1.57;;;13.60;99.90;;;;;;5099362;28;20876;-73
2022/08/06 01:32:30;;;;;;;3.10;1.70;;;13.60;99.90;;;;;;5100060;28;21232;-71
2022/08/06 01:35:23;;;;;;;2.30;1.73;;;13.60;99.90;;;;;;5096771;28;20537;-71
2022/08/06 01:38:35;;;;;;;1.67;1.57;;;13.60;99.90;;;;;;5096341;28;20459;-71
2022/08/06 01:41:42;;;;;;;2.27;2.07;;;13.60;99.90;;;;;;5099070;28;20489;-71
2022/08/06 01:44:51;;;;;;;4.93;2.13;;;13.50;99.90;;;;;;5102674;27;20455;-74
2022/08/06 01:47:43;;;;;;;2.00;1.90;;;13.50;99.90;;;;;;5100945;28;20963;-72
2022/08/06 01:50:45;;;;;;;2.37;2.17;;;13.40;99.90;;;;;;5102285;28;20837;-74
2022/08/06 01:53:37;;;;;;;2.07;1.77;;;13.40;99.90;;;;;;5097987;28;20879;-71
2022/08/06 01:56:49;;;;;;;2.17;1.97;;;13.40;99.90;;;;;;5098363;28;20474;-71
2022/08/06 01:59:49;;;;;;;1.93;1.60;;;13.40;99.90;;;;;;5100149;28;20530;-71
2022/08/06 02:02:44;;;;;;;1.90;1.80;;;13.40;99.90;;;;;;5099895;27;20452;-74
2022/08/06 02:05:34;;;;;;;2.73;2.00;;;13.40;99.90;;;;;;5096910;28;20448;-71
2022/08/06 02:08:42;;;;;;;2.23;1.73;;;13.30;99.90;;;;;;5113462;22;20581;-68
2022/08/06 02:11:33;;;;;;;3.60;1.70;;;13.30;99.90;;;;;;5057336;28;20598;-65
2022/08/06 02:14:46;;;;;;;1.70;1.60;;;13.30;99.90;;;;;;5059947;28;20467;-65
2022/08/06 02:17:42;;;;;;;2.50;2.10;;;13.20;99.90;;;;;;5058632;28;21031;-67
2022/08/06 02:20:53;;;;;;;2.23;1.80;;;13.20;99.90;;;;;;5033251;28;20482;-65
2022/08/06 02:23:43;;;;;;;2.90;1.70;;;13.20;99.90;;;;;;5043101;28;20443;-65
2022/08/06 02:26:34;;;;;;;2.60;1.83;;;13.20;99.90;;;;;;5045511;28;20573;-65
2022/08/06 02:29:24;;;;;;;3.00;1.80;;;13.20;99.90;;;;;;5040310;28;20548;-65
2022/08/06 02:32:32;;;;;;;2.03;1.80;;;13.20;99.90;;;;;;5033008;28;20954;-65
2022/08/06 02:35:22;;;;;;;2.10;1.90;;;13.10;99.90;;;;;;5036538;28;20451;-65
2022/08/06 02:38:15;;;;;;;1.80;1.70;;;13.10;99.90;;;;;;5039268;28;20860;-65
2022/08/06 02:41:16;;;;;;;2.40;2.20;;;13.10;99.90;;;;;;5039451;28;20877;-65
2022/08/06 02:44:10;;;;;;;3.43;2.03;;;13.10;99.90;;;;;;5036632;28;21776;-65
2022/08/06 02:47:05;;;;;;;2.57;1.83;;;13.10;99.90;;;;;;5037541;28;20486;-65
2022/08/06 02:50:07;;;;;;;2.20;2.10;;;13.10;99.90;;;;;;5039370;28;21120;-65
2022/08/06 02:53:04;;;;;;;2.83;1.90;;;13.10;99.90;;;;;;5040077;28;20465;-65
2022/08/06 02:56:14;;;;;;;2.20;1.87;;;13.00;99.90;;;;;;5036349;28;21112;-65
2022/08/06 02:59:05;;;;;;;1.70;1.60;;;13.00;99.90;;;;;;5042611;28;20467;-65
2022/08/06 03:02:03;;;;;;;3.03;1.80;;;13.00;99.90;;;;;;5038818;28;20464;-65
2022/08/06 03:04:54;;;;;;;1.73;1.60;;;13.00;99.90;;;;;;5037953;28;20961;-65
2022/08/06 03:07:46;;;;;;;2.00;1.80;;;12.90;99.90;;;;;;5037765;28;21144;-65
2022/08/06 03:10:37;;;;;;;3.93;1.87;;;13.00;99.90;;;;;;5040514;28;21017;-65
2022/08/06 03:13:26;;;;;;;2.10;2.00;;;12.90;99.90;;;;;;5039272;28;20827;-65
2022/08/06 03:16:24;;;;;;;2.97;2.00;;;12.90;99.90;;;;;;5037099;28;20442;-65
2022/08/06 03:19:18;;;;;;;1.90;1.80;;;12.90;99.90;;;;;;5038968;28;20884;-64
2022/08/06 03:22:28;;;;;;;2.10;1.90;;;12.90;99.90;;;;;;5041619;28;20446;-65
2022/08/06 03:25:33;;;;;;;2.00;1.80;;;12.90;99.90;;;;;;5032345;28;20447;-65
2022/08/06 03:28:33;;;;;;;1.80;1.70;;;12.90;99.90;;;;;;5032202;28;21615;-65
2022/08/06 03:31:23;;;;;;;1.90;1.80;;;12.80;99.90;;;;;;5034867;28;20933;-65
2022/08/06 03:34:21;;;;;;;2.97;2.40;;;12.80;99.90;;;;;;5033412;28;20498;-65
2022/08/06 03:37:11;;;;;;;2.00;1.90;;;12.80;99.90;;;;;;5037063;28;20467;-64
2022/08/06 03:40:05;;;;;;;2.10;2.00;;;12.70;99.90;;;;;;5037720;28;20493;-65
2022/08/06 03:42:54;;;;;;;1.83;1.73;;;12.70;99.90;;;;;;5036110;28;20457;-65
2022/08/06 03:45:49;;;;;;;2.60;2.20;;;12.70;99.90;;;;;;5038892;28;20860;-65
2022/08/06 03:48:44;;;;;;;3.03;2.07;;;12.70;99.90;;;;;;5040276;28;20500;-64
2022/08/06 03:51:35;;;;;;;2.97;2.37;;;12.70;99.90;;;;;;5035566;28;20546;-65
2022/08/06 03:54:47;;;;;;;2.20;2.00;;;12.70;99.90;;;;;;5036510;28;20484;-65
2022/08/06 03:57:41;;;;;;;4.10;2.33;;;12.60;99.90;;;;;;5036642;28;20962;-65
2022/08/06 04:00:42;;;;;;;2.23;2.03;;;12.60;99.90;;;;;;5047819;28;20466;-65
2022/08/06 04:03:35;;;;;;;2.70;2.47;;;12.60;99.90;;;;;;5038834;28;21027;-65
2022/08/06 04:06:28;;;;;;;3.50;2.53;;;12.60;99.90;;;;;;5043999;28;20499;-65
2022/08/06 04:09:19;;;;;;;2.40;2.30;;;12.50;99.90;;;;;;5038264;28;20522;-67
2022/08/06 04:12:29;;;;;;;2.53;2.33;;;12.50;99.90;;;;;;5034220;28;20440;-65
2022/08/06 04:15:38;;;;;;;2.70;2.50;;;12.50;99.90;;;;;;5035093;28;20472;-67
2022/08/06 04:18:29;;;;;;;2.53;2.33;;;12.50;99.90;;;;;;5039052;28;20448;-65
2022/08/06 04:21:23;;;;;;;2.40;2.20;;;12.50;99.90;;;;;;5044926;28;20519;-65
2022/08/06 04:24:32;;;;;;;2.20;2.10;;;12.50;99.90;;;;;;5044194;28;20478;-67
2022/08/06 04:27:22;;;;;;;2.53;2.30;;;12.50;99.90;;;;;;5044700;28;20443;-67
2022/08/06 04:30:12;;;;;;;2.20;2.10;;;12.50;99.90;;;;;;5041008;28;20561;-65
2022/08/06 04:33:03;;;;;;;4.17;2.37;;;12.50;99.90;;;;;;5042081;28;20476;-65
2022/08/06 04:35:51;;;;;;;2.93;2.63;;;12.50;99.90;;;;;;5043586;28;20482;-65
2022/08/06 04:38:57;;;;;;;3.30;2.10;;;12.50;99.90;;;;;;5041106;28;22508;-64
2022/08/06 04:41:46;;;;;;;2.50;2.23;;;12.50;99.90;;;;;;5041103;28;20450;-65
2022/08/06 04:44:44;;;;;;;2.80;2.03;;;12.50;99.90;;;;;;5038576;28;20459;-64
2022/08/06 04:47:44;;;;;;;3.30;2.40;;;12.60;99.90;;;;;;5034969;28;20646;-65
2022/08/06 04:50:35;;;;;;;3.60;2.90;;;12.60;99.90;;;;;;5040016;28;20506;-65
2022/08/06 04:53:25;;;;;;;2.43;2.23;;;12.60;99.90;;;;;;5045457;28;20450;-65
2022/08/06 04:56:34;;;;;;;2.20;2.00;;;12.70;99.90;;;;;;5048037;28;20961;-64
2022/08/06 04:59:24;;;;;;;2.80;2.03;;;12.70;99.90;;;;;;5038793;28;20474;-65
2022/08/06 05:02:32;;;;;;;2.60;2.40;;;12.70;99.90;;;;;;5042317;28;20432;-65
2022/08/06 05:05:23;;;;;;;2.40;2.20;;;12.70;99.90;;;;;;5039596;28;20449;-67
2022/08/06 05:08:14;;;;;;;2.30;2.10;;;12.80;99.90;;;;;;5041496;28;20567;-65
2022/08/06 05:11:05;;;;;;;2.17;2.03;;;12.80;99.90;;;;;;5023373;28;20455;-65
2022/08/06 05:14:02;;;;;;;2.90;2.30;;;12.90;99.90;;;;;;5023365;28;20450;-65
2022/08/06 05:16:56;;;;;;;2.27;2.13;;;12.90;99.90;;;;;;5024723;28;20449;-67
2022/08/06 05:19:50;;;;;;;2.30;2.10;;;13.00;99.90;;;;;;5021500;28;20468;-67
2022/08/06 05:22:40;;;;;;;2.40;2.20;;;13.00;99.90;;;;;;5027010;28;20452;-67
2022/08/06 05:25:42;;;;;;;1.80;1.70;;;13.10;99.90;;;;;;5020434;28;20507;-67
2022/08/06 05:28:41;;;;;;;3.20;1.90;;;13.10;99.90;;;;;;5024498;28;22412;-65
2022/08/06 05:31:37;;;;;;;2.23;1.87;;;13.20;99.90;;;;;;5022809;28;20463;-65
2022/08/06 05:34:28;;;;;;;2.07;1.97;;;13.30;99.90;;;;;;5018442;28;20493;-65
2022/08/06 05:37:16;;;;;;;1.93;1.83;;;13.30;99.90;;;;;;5020208;28;20802;-67
2022/08/06 05:40:06;;;;;;;1.70;1.60;;;13.40;99.90;;;;;;5017006;28;20700;-67
2022/08/06 05:42:57;;;;;;;2.20;2.10;;;13.50;99.90;;;;;;5017913;28;20680;-67
2022/08/06 05:45:47;;;;;;;3.10;1.93;;;13.60;99.90;;;;;;5017200;28;20463;-67
2022/08/06 05:48:42;;;;;;;2.20;1.77;;;13.70;99.90;;;;;;5018094;28;20495;-67
2022/08/06 05:51:49;;;;;;;2.30;1.60;;;13.80;99.90;;;;;;5021441;28;20462;-67
2022/08/06 05:54:41;;;;;;;2.57;1.80;;;13.80;99.90;;;;;;5016579;28;20452;-67
2022/08/06 05:57:37;;;;;;;4.70;1.80;;;13.90;99.90;;;;;;5015164;28;20587;-67
2022/08/06 06:00:32;;;;;;;1.30;1.20;;;13.90;99.90;;;;;;5028009;28;20475;-67
2022/08/06 06:03:31;;;;;;;1.80;1.67;;;14.00;99.90;;;;;;5020849;28;20542;-67
2022/08/06 06:06:23;;;;;;;2.50;1.60;;;14.00;99.90;;;;;;5018482;28;20871;-67
2022/08/06 06:09:13;;;;;;;2.20;1.40;;;14.10;99.90;;;;;;5027066;28;20860;-67
2022/08/06 06:12:02;;;;;;;1.50;1.40;;;14.10;99.90;;;;;;5044891;28;20459;-67
2022/08/06 06:14:52;;;;;;;1.57;1.47;;;14.20;99.90;;;;;;5045194;28;20976;-67
2022/08/06 06:17:55;;;;;;;2.37;1.77;;;14.30;99.90;;;;;;5042595;28;20486;-67
2022/08/06 06:20:56;;;;;;;2.13;1.43;;;14.30;99.90;;;;;;5043378;28;20852;-67
2022/08/06 06:24:13;;;;;;;1.50;1.40;;;14.40;99.90;;;;;;5034546;28;20535;-67
2022/08/06 06:27:15;;;;;;;2.77;1.90;;;14.40;99.90;;;;;;5038951;28;21063;-67
2022/08/06 06:30:30;;;;;;;2.40;1.80;;;14.50;99.90;;;;;;5045086;28;20471;-65
2022/08/06 06:33:34;;;;;;;2.93;1.80;;;14.60;99.90;;;;;;5044867;28;20457;-65
2022/08/06 06:36:35;;;;;;;2.83;2.20;;;14.70;99.90;;;;;;5036286;28;20493;-67
2022/08/06 06:39:32;;;;;;;2.87;1.77;;;14.80;99.90;;;;;;5039188;28;20478;-65
2022/08/06 06:42:32;;;;;;;1.63;1.53;;;14.80;99.90;;;;;;5042211;28;20469;-65
2022/08/06 06:45:31;;;;;;;1.90;1.40;;;14.90;99.90;;;;;;5041316;28;20435;-65
2022/08/06 06:48:43;;;;;;;1.43;1.33;;;15.00;99.90;;;;;;5041643;28;20451;-67
2022/08/06 06:51:37;;;;;;;2.20;1.67;;;15.10;99.90;;;;;;5042708;28;20454;-65
2022/08/06 06:54:53;;;;;;;1.40;1.30;;;15.10;99.90;;;;;;5033054;28;20472;-65
2022/08/06 06:57:56;;;;;;;2.90;1.50;;;15.20;99.90;;;;;;5035807;28;20806;-65
2022/08/06 07:00:45;;;;;;;1.10;1.10;;;15.30;99.90;;;;;;5037188;28;20459;-65
2022/08/06 07:03:55;;;;;;;2.87;1.23;;;15.40;99.90;;;;;;5040776;28;21072;-65
2022/08/06 07:06:46;;;;;;;2.37;1.23;;;15.40;99.90;;;;;;5038753;28;20528;-65
2022/08/06 07:09:47;;;;;;;2.03;1.70;;;15.50;99.90;;;;;;5035782;28;20488;-65
2022/08/06 07:12:49;;;;;;;2.23;1.50;;;15.60;99.90;;;;;;5038367;28;20474;-65
2022/08/06 07:15:42;;;;;;;2.30;1.40;;;15.80;99.90;;;;;;5039956;28;20617;-64
2022/08/06 07:18:43;;;;;;;1.30;1.20;;;15.80;99.90;;;;;;5036452;28;20454;-66
2022/08/06 07:21:42;;;;;;;2.10;1.13;;;15.90;99.90;;;;;;5037802;28;20450;-65
2022/08/06 07:24:41;;;;;;;3.20;1.30;;;16.00;99.90;;;;;;5040901;28;20486;-65
2022/08/06 07:27:38;;;;;;;2.30;1.30;;;16.00;99.90;;;;;;5038710;28;20569;-65
2022/08/06 07:30:33;;;;;;;3.63;1.67;;;16.10;99.90;;;;;;5039182;28;20473;-65
2022/08/06 07:33:22;;;;;;;4.30;1.30;;;16.20;99.90;;;;;;5038216;28;20448;-65
2022/08/06 07:36:16;;;;;;;2.20;1.53;;;16.30;99.90;;;;;;5036209;28;20579;-65
2022/08/06 07:39:08;;;;;;;1.60;1.30;;;16.30;99.90;;;;;;5036810;28;20478;-65
2022/08/06 07:42:08;;;;;;;1.90;0.90;;;16.40;99.90;;;;;;5017868;28;20459;-65
2022/08/06 07:45:04;;;;;;;1.83;1.40;;;16.40;99.90;;;;;;5026847;28;20443;-66
2022/08/06 07:48:00;;;;;;;2.50;1.23;;;16.50;99.90;;;;;;5035210;28;20446;-66
2022/08/06 07:50:52;;;;;;;2.30;2.00;;;16.60;99.90;;;;;;5033163;28;21016;-66
2022/08/06 07:53:43;;;;;;;1.50;1.40;;;16.60;99.90;;;;;;5035407;28;20451;-66
2022/08/06 07:56:46;;;;;;;3.10;1.87;;;16.60;99.90;;;;;;5036026;28;20466;-67
2022/08/06 07:59:50;;;;;;;4.23;1.43;;;16.60;99.90;;;;;;5029386;28;20586;-66
2022/08/06 08:06:17;;;;;;;1.60;1.20;;;16.70;99.90;;;;;;5025603;28;20974;-66
2022/08/06 08:09:03;;;;;;;1.80;1.20;;;16.90;99.90;;;;;;5029498;28;22562;-67
2022/08/06 08:11:53;;;;;;;1.73;1.40;;;17.00;99.90;;;;;;5069449;22;20500;-72
2022/08/06 08:15:03;;;;;;;1.70;1.17;;;17.00;99.90;;;;;;5055747;28;20568;-71
2022/08/06 08:17:55;;;;;;;1.40;1.30;;;17.10;99.90;;;;;;5055094;28;20469;-71
2022/08/06 08:20:47;;;;;;;1.03;1.00;;;17.10;99.90;;;;;;5043961;28;20461;-73
2022/08/06 08:23:42;;;;;;;2.33;1.40;;;17.10;99.90;;;;;;5034848;28;20537;-71
2022/08/06 08:26:33;;;;;;;0.80;0.80;;;17.10;99.90;;;;;;5038924;28;20897;-73
2022/08/06 08:29:43;;;;;;;0.93;0.80;;;17.10;99.90;;;;;;5040144;28;20520;-74
2022/08/06 08:32:42;;;;;;;1.00;0.90;;;17.10;99.90;;;;;;5054656;28;20775;-72
2022/08/06 08:35:35;;;;;;;1.73;1.10;;;17.10;99.90;;;;;;5047798;28;20876;-70
2022/08/06 08:38:25;;;;;;;1.53;1.00;;;17.10;99.90;;;;;;5033265;28;20481;-71
2022/08/06 08:44:27;;;;;;;3.07;1.13;;;17.20;99.90;;;;;;5048555;22;20500;-73
2022/08/06 08:47:20;;;;;;;1.00;1.00;;;17.20;99.90;;;;;;5038215;28;20478;-73
2022/08/06 08:50:10;;;;;;;1.37;0.93;;;17.30;99.90;;;;;;5036970;28;20564;-73
2022/08/06 08:53:05;;;;;;;1.13;0.87;;;17.30;99.90;;;;;;5049377;28;20574;-73
2022/08/06 08:55:57;;;;;;;1.27;0.80;;;17.30;99.90;;;;;;5035089;28;21071;-70
2022/08/06 08:59:06;;;;;;;0.97;0.97;;;17.40;99.90;;;;;;5048524;22;21426;-72
2022/08/06 09:02:15;;;;;;;1.20;1.10;;;17.40;99.90;;;;;;5046711;28;20877;-72
2022/08/06 09:05:03;;;;;;;1.10;0.90;;;17.50;99.90;;;;;;5048917;28;20606;-73
2022/08/06 09:07:52;;;;;;;1.00;0.90;;;17.60;99.90;;;;;;5047882;28;20540;-72
2022/08/06 09:10:51;;;;;;;1.60;0.90;;;17.70;99.90;;;;;;5042860;28;20484;-73
2022/08/06 09:13:40;;;;;;;2.63;1.17;;;17.70;99.90;;;;;;5051493;28;20462;-73
2022/08/06 09:16:39;;;;;;;1.70;1.10;;;17.80;99.90;;;;;;5055716;28;20504;-73
2022/08/06 09:19:38;;;;;;;1.80;1.27;;;17.90;99.90;;;;;;5051993;28;20509;-72
2022/08/06 09:22:29;;;;;;;1.07;0.90;;;17.90;99.90;;;;;;5050844;28;21159;-72
2022/08/06 09:25:40;;;;;;;1.47;1.17;;;18.00;99.90;;;;;;5055615;28;20509;-72
2022/08/06 09:28:43;;;;;;;1.13;0.90;;;18.00;99.90;;;;;;5053239;28;20579;-71
2022/08/06 09:31:38;;;;;;;1.20;0.73;;;18.10;99.90;;;;;;5049893;28;20496;-72
2022/08/06 09:34:33;;;;;;;1.27;0.90;;;18.10;99.90;;;;;;5055449;28;20465;-71
2022/08/06 09:37:33;;;;;;;1.70;1.00;;;18.30;99.90;;;;;;5043911;28;20486;-72
2022/08/06 09:40:43;;;;;;;1.33;1.23;;;18.30;99.90;;;;;;5051080;28;20493;-72
2022/08/06 09:43:33;;;;;;;2.03;1.10;;;18.40;99.90;;;;;;5052677;28;20984;-71
2022/08/06 09:46:45;;;;;;;2.30;1.27;;;18.40;99.90;;;;;;5053356;28;20567;-72
2022/08/06 09:49:47;;;;;;;1.33;1.10;;;18.50;99.90;;;;;;5049783;28;20496;-72
2022/08/06 09:53:02;;;;;;;2.30;1.30;;;18.50;99.90;;;;;;5052474;28;20492;-72
2022/08/06 09:56:00;;;;;;;1.23;0.90;;;18.50;99.90;;;;;;5048617;28;20643;-72
2022/08/06 09:58:49;;;;;;;1.50;1.00;;;18.50;99.90;;;;;;5062624;28;20477;-71
2022/08/06 10:01:46;;;;;;;4.27;1.10;;;18.60;99.90;;;;;;5053380;28;21027;-71
2022/08/06 10:04:37;;;;;;;1.37;1.03;;;18.50;99.90;;;;;;5054797;28;20479;-71
2022/08/06 10:07:31;;;;;;;2.60;1.00;;;18.50;99.90;;;;;;5048375;28;20580;-72
2022/08/06 10:10:44;;;;;;;1.63;0.83;;;18.40;99.90;;;;;;5054783;28;20597;-72
2022/08/06 10:13:38;;;;;;;1.53;1.20;;;18.40;99.90;;;;;;5047843;28;20485;-72
2022/08/06 10:16:36;;;;;;;1.07;1.07;;;18.30;99.90;;;;;;5053369;28;20474;-73
2022/08/06 10:19:27;;;;;;;3.40;1.27;;;18.30;99.90;;;;;;5052794;28;20517;-72
2022/08/06 10:22:24;;;;;;;1.00;0.90;;;18.40;99.90;;;;;;5052433;28;20477;-72
2022/08/06 10:25:14;;;;;;;2.50;1.20;;;18.50;99.90;;;;;;5053913;28;20485;-71
2022/08/06 10:28:17;;;;;;;1.67;1.27;;;18.60;99.90;;;;;;5055658;28;20808;-72
2022/08/06 10:31:16;;;;;;;1.73;1.27;;;18.80;99.90;;;;;;5041067;28;20859;-72
2022/08/06 10:34:11;;;;;;;1.03;0.90;;;18.80;99.90;;;;;;5045987;28;20484;-73
2022/08/06 10:37:03;;;;;;;2.90;1.20;;;18.90;99.90;;;;;;5038495;28;21178;-72
2022/08/06 10:40:15;;;;;;;2.30;1.37;;;19.10;99.90;;;;;;5034791;28;20538;-73
2022/08/06 10:43:19;;;;;;;3.00;1.57;;;19.10;99.90;;;;;;5049485;28;20643;-73
2022/08/06 10:46:24;;;;;;;2.87;1.57;;;19.10;99.90;;;;;;5038627;28;20539;-72
2022/08/06 10:49:14;;;;;;;2.13;1.60;;;19.00;99.90;;;;;;5046273;28;20557;-73
2022/08/06 10:52:24;;;;;;;2.03;1.60;;;19.00;99.90;;;;;;5048002;28;21974;-72
2022/08/06 10:55:13;;;;;;;1.97;1.77;;;19.00;99.90;;;;;;5057369;28;20477;-72
2022/08/06 10:58:03;;;;;;;3.07;1.73;;;19.00;99.90;;;;;;5052975;28;20489;-73
2022/08/06 11:00:53;;;;;;;4.53;2.40;;;19.10;99.90;;;;;;5052854;28;20453;-72
2022/08/06 11:04:14;;;;;;;2.53;2.33;;;19.30;99.90;;;;;;5058149;28;21284;-72
2022/08/06 11:07:33;;;;;;;3.80;2.40;;;19.40;99.90;;;;;;5051235;28;20466;-72
2022/08/06 11:11:08;;;;;;;2.83;2.50;;;19.50;99.90;;;;;;5053923;28;20454;-72
2022/08/06 11:14:11;;;;;;;3.93;3.00;;;19.80;99.90;;;;;;5046026;28;20957;-73
2022/08/06 11:17:07;;;;;;;4.90;2.87;;;19.90;99.90;;;;;;5049268;28;20544;-75
2022/08/06 11:19:58;;;;;;;3.20;2.80;;;20.10;99.90;;;;;;5047044;28;20474;-71
2022/08/06 11:23:00;;;;;;;4.03;3.13;;;20.20;99.90;;;;;;5035547;28;20458;-71
2022/08/06 11:25:52;;;;;;;2.87;2.67;;;20.40;99.90;;;;;;5049502;28;20902;-72
2022/08/06 11:29:02;;;;;;;3.13;2.80;;;20.40;99.90;;;;;;5053262;28;20601;-72
2022/08/06 11:31:52;;;;;;;2.30;2.13;;;20.40;99.90;;;;;;5054433;28;20457;-71
2022/08/06 11:34:44;;;;;;;3.50;3.20;;;20.50;99.90;;;;;;5055198;28;20522;-72
2022/08/06 11:37:46;;;;;;;2.90;2.60;;;20.50;99.90;;;;;;5055723;28;20828;-71
2022/08/06 11:40:57;;;;;;;2.77;2.57;;;20.40;99.90;;;;;;5058512;28;20500;-72
2022/08/06 11:44:04;;;;;;;3.20;2.90;;;20.50;99.90;;;;;;5060365;28;20474;-72
2022/08/06 11:47:08;;;;;;;3.27;2.97;;;20.60;99.90;;;;;;5058890;28;20449;-72
2022/08/06 11:49:57;;;;;;;4.07;3.67;;;20.70;99.90;;;;;;5051023;28;20865;-70
2022/08/06 11:52:45;;;;;;;4.07;3.77;;;20.90;99.90;;;;;;5057769;28;20950;-70
2022/08/06 11:56:05;;;;;;;3.40;3.10;;;21.00;99.90;;;;;;5063213;28;20461;-70
2022/08/06 11:59:15;;;;;;;2.90;2.70;;;21.10;99.90;;;;;;5055414;28;20612;-71
2022/08/06 12:02:07;;;;;;;3.43;2.80;;;21.20;99.90;;;;;;5045092;28;20778;-71
2022/08/06 12:05:02;;;;;;;3.30;3.10;;;21.30;99.90;;;;;;5047974;28;20466;-69
2022/08/06 12:08:18;;;;;;;3.40;3.07;;;21.30;99.90;;;;;;5052418;28;20450;-69
2022/08/06 12:11:31;;;;;;;4.03;3.60;;;21.40;99.90;;;;;;5040714;28;20544;-69
2022/08/06 12:14:41;;;;;;;4.37;3.00;;;21.60;99.90;;;;;;5052975;28;20446;-70
2022/08/06 12:17:39;;;;;;;3.90;3.47;;;21.60;99.90;;;;;;5049824;28;20962;-69
2022/08/06 12:20:49;;;;;;;3.57;2.77;;;21.60;99.90;;;;;;5058620;28;20546;-70
2022/08/06 12:23:45;;;;;;;3.50;2.70;;;21.60;99.90;;;;;;5060241;28;20462;-71
2022/08/06 12:26:45;;;;;;;3.60;3.30;;;21.70;99.90;;;;;;5056428;28;20545;-70
2022/08/06 12:29:34;;;;;;;5.10;3.50;;;21.90;99.90;;;;;;5059360;28;20576;-71
2022/08/06 12:32:31;;;;;;;3.67;3.37;;;22.00;99.90;;;;;;5058358;28;20457;-70
2022/08/06 12:35:20;;;;;;;3.33;3.10;;;22.10;99.90;;;;;;5050658;28;20502;-70
2022/08/06 12:38:11;;;;;;;3.27;2.90;;;22.20;99.90;;;;;;5051081;28;20469;-69
2022/08/06 12:41:04;;;;;;;4.40;3.60;;;22.30;99.90;;;;;;5048574;28;20451;-69
2022/08/06 12:44:02;;;;;;;3.63;3.33;;;22.40;99.90;;;;;;5054918;28;20459;-70
2022/08/06 12:46:50;;;;;;;3.77;3.47;;;22.40;99.90;;;;;;5043882;28;21128;-71
2022/08/06 12:49:41;;;;;;;4.17;3.57;;;22.60;99.90;;;;;;5056116;28;20468;-71
2022/08/06 12:52:34;;;;;;;3.73;3.43;;;22.60;99.90;;;;;;5052865;28;20919;-71
2022/08/06 12:55:23;;;;;;;4.20;3.87;;;22.70;99.90;;;;;;5046693;28;21036;-71
2022/08/06 12:58:17;;;;;;;5.00;4.60;;;22.80;99.90;;;;;;5058593;28;20673;-71
2022/08/06 13:01:31;;;;;;;4.90;4.50;;;23.00;99.90;;;;;;5050159;28;20488;-70
2022/08/06 13:04:44;;;;;;;4.13;3.60;;;23.10;99.90;;;;;;5038979;28;20474;-70
2022/08/06 13:07:34;;;;;;;3.80;3.50;;;23.20;99.90;;;;;;5030191;28;20542;-69
2022/08/06 13:10:31;;;;;;;4.33;3.87;;;23.20;99.90;;;;;;5041667;28;20822;-70
2022/08/06 13:13:36;;;;;;;4.30;4.00;;;23.10;99.90;;;;;;5033551;28;20544;-70
2022/08/06 13:16:48;;;;;;;4.47;4.07;;;23.20;99.90;;;;;;5044461;28;20720;-69
2022/08/06 13:19:55;;;;;;;4.80;4.40;;;23.30;99.90;;;;;;5051303;28;20521;-70
2022/08/06 13:22:50;;;;;;;4.40;4.10;;;23.40;99.90;;;;;;5018106;28;21605;-70
2022/08/06 13:25:43;;;;;;;5.30;4.13;;;23.60;99.90;;;;;;5029727;28;20478;-71
2022/08/06 13:28:39;;;;;;;4.70;4.40;;;23.60;99.90;;;;;;5024865;28;20501;-71
2022/08/06 13:32:00;;;;;;;4.43;4.03;;;23.80;99.90;;;;;;5031236;28;20829;-70
2022/08/06 13:34:53;;;;;;;4.87;4.47;;;23.90;99.90;;;;;;5026584;28;20482;-70
2022/08/06 13:37:43;;;;;;;5.57;5.07;;;23.90;99.90;;;;;;5035250;28;20469;-67
2022/08/06 13:40:45;;;;;;;5.07;4.67;;;24.00;99.90;;;;;;5032778;28;20454;-68
2022/08/06 13:43:44;;;;;;;6.00;5.20;;;24.10;99.90;;;;;;5032314;28;20462;-69
2022/08/06 13:46:44;;;;;;;6.40;4.90;;;24.20;99.90;;;;;;5045073;28;20488;-69
2022/08/06 13:49:40;;;;;;;5.27;4.03;;;24.30;99.90;;;;;;5047624;28;20474;-70
2022/08/06 13:52:51;;;;;;;4.60;4.20;;;24.30;99.90;;;;;;5047117;28;21028;-70
2022/08/06 13:55:49;;;;;;;4.70;4.30;;;24.40;99.90;;;;;;5057732;28;20477;-69
2022/08/06 13:58:52;;;;;;;4.80;4.33;;;24.50;99.90;;;;;;5055885;28;20582;-71
2022/08/06 14:01:43;;;;;;;4.70;4.30;;;24.80;99.90;;;;;;5048286;28;20450;-69
2022/08/06 14:04:33;;;;;;;6.73;4.47;;;24.90;99.90;;;;;;5052145;28;20478;-69
2022/08/06 14:07:23;;;;;;;5.50;5.10;;;25.10;99.90;;;;;;5055185;28;20457;-69
2022/08/06 14:10:22;;;;;;;4.87;4.40;;;25.20;99.90;;;;;;5053300;28;20465;-70
2022/08/06 14:13:19;;;;;;;5.40;4.90;;;25.40;99.90;;;;;;5053010;28;20512;-70
2022/08/06 14:16:08;;;;;;;4.43;4.13;;;25.70;99.90;;;;;;5056478;28;20574;-70
2022/08/06 14:18:56;;;;;;;5.00;4.70;;;26.00;99.90;;;;;;5057607;28;20588;-70
2022/08/06 14:22:05;;;;;;;4.93;4.50;;;26.30;99.90;;;;;;5058174;28;20795;-70
2022/08/06 14:24:56;;;;;;;5.07;4.67;;;27.10;99.90;;;;;;5054205;28;20481;-70
2022/08/06 14:27:47;;;;;;;4.43;4.10;;;27.40;99.90;;;;;;5055840;28;20523;-70
2022/08/06 14:30:37;;;;;;;5.83;5.10;;;;;;;;;;5056851;28;20453;-70
2022/08/06 14:33:30;;;;;;;5.47;5.07;;;;;;;;;;5055489;28;20501;-70
2022/08/06 14:36:26;;;;;;;6.30;5.80;;;;;;;;;;5050210;28;20469;-70
2022/08/06 14:39:18;;;;;;;5.70;5.20;;;;;;;;;;5039123;28;20474;-70
2022/08/06 14:45:35;;;;;;;5.60;5.20;;;;;;;;;;5034159;28;20496;-70
2022/08/06 14:48:27;;;;;;;6.33;5.83;;;;;;;;;;5056074;28;20497;-69
2022/08/06 14:51:18;;;;;;;6.37;5.83;;;;;;;;;;5054374;28;20477;-69
2022/08/06 14:54:10;;;;;;;8.43;5.83;;;27.50;98.80;;;;;;5057749;28;20460;-71
2022/08/06 14:57:04;;;;;;;6.03;5.40;;;26.90;99.90;;;;;;5052918;28;20437;-71
2022/08/06 15:00:06;;;;;;;6.60;6.00;;;26.50;99.90;;;;;;5057859;28;20555;-73
2022/08/06 15:02:54;;;;;;;5.60;5.20;;;26.20;99.90;;;;;;5056324;28;20567;-71
2022/08/06 15:05:43;;;;;;;6.87;6.30;;;26.00;99.90;;;;;;5050071;28;21057;-72
2022/08/06 15:08:51;;;;;;;6.00;5.50;;;25.60;99.90;;;;;;5055692;28;20473;-71
2022/08/06 15:11:40;;;;;;;6.03;5.53;;;25.50;99.90;;;;;;5042575;28;20557;-72
2022/08/06 15:14:49;;;;;;;5.97;5.57;;;25.50;99.90;;;;;;5054028;28;20978;-70
2022/08/06 15:17:39;;;;;;;6.90;6.40;;;25.30;99.90;;;;;;5057792;28;20547;-71
2022/08/06 15:20:50;;;;;;;6.07;5.33;;;25.30;99.90;;;;;;5048270;28;20477;-70
2022/08/06 15:23:38;;;;;;;5.70;5.20;;;25.20;99.90;;;;;;5051243;28;20469;-69
2022/08/06 15:26:42;;;;;;;5.33;4.83;;;25.10;99.90;;;;;;5049767;28;20624;-69
2022/08/06 15:29:36;;;;;;;5.50;5.10;;;25.00;99.90;;;;;;5049657;28;20469;-71
2022/08/06 15:32:24;;;;;;;6.00;5.30;;;25.10;99.90;;;;;;5051794;28;20611;-71
2022/08/06 15:35:15;;;;;;;5.13;4.73;;;24.90;99.90;;;;;;5054113;28;20543;-70